Time;durP1;ratioP1;P1;durP2;ratioP2;P2;SDS_P1;SDS_P2;PMS_P1;PMS_P2;Temp;Humidity;BMP_temperature;BMP_pressure;BME280_temperature;BME280_humidity;BME280_pressure;Samples;Min_cycle;Max_cycle;Signal;HPM_P1;HPM_P2
2022/05/01 00:02:40;;;;;;;19.08;12.98;;;;;;;11.15;nan;101037.78;4999222;28;20056;-68
2022/05/01 00:05:24;;;;;;;19.70;12.93;;;;;;;11.18;nan;101038.34;4999383;28;20113;-68
2022/05/01 00:08:08;;;;;;;26.48;14.32;;;;;;;11.19;nan;101028.53;5014230;28;20045;-68
2022/05/01 00:10:51;;;;;;;19.17;13.80;;;;;;;11.13;nan;101031.72;5013833;28;20064;-69
2022/05/01 00:13:36;;;;;;;25.65;14.38;;;;;;;11.13;nan;101032.56;4999237;28;20051;-69
2022/05/01 00:16:20;;;;;;;22.70;13.93;;;;;;;11.06;nan;101034.03;4999199;28;20422;-68
2022/05/01 00:19:04;;;;;;;18.75;14.95;;;;;;;11.09;nan;101038.28;4999136;28;20406;-69
2022/05/01 00:21:47;;;;;;;24.42;15.32;;;;;;;11.03;nan;101044.97;4985216;28;20044;-69
2022/05/01 00:24:32;;;;;;;20.92;13.38;;;;;;;11.05;nan;101031.53;5013749;28;20100;-68
2022/05/01 00:27:17;;;;;;;18.85;14.38;;;;;;;10.92;nan;101042.38;4999099;28;20049;-68
2022/05/01 00:30:01;;;;;;;20.38;14.45;;;;;;;10.80;nan;101043.41;4999116;28;20127;-68
2022/05/01 00:38:50;;;;;;;18.92;13.95;;;;;;;10.90;nan;101028.31;5001373;28;20044;-68
2022/05/01 00:41:36;;;;;;;21.02;14.07;;;;;;;10.94;nan;101029.75;4984850;28;20095;-68
2022/05/01 00:44:21;;;;;;;18.77;13.80;;;;;;;10.95;nan;101026.09;4998859;28;20056;-68
2022/05/01 00:47:06;;;;;;;19.73;13.85;;;;;;;11.01;nan;101020.25;4998806;28;20175;-68
2022/05/01 00:49:50;;;;;;;17.75;13.00;;;;;;;10.99;nan;101016.88;4998683;28;20090;-68
2022/05/01 00:52:34;;;;;;;18.75;12.98;;;;;;;11.02;nan;101015.75;5013708;28;20465;-68
2022/05/01 00:55:18;;;;;;;23.08;13.60;;;;;;;10.96;nan;101021.63;4998601;28;20080;-68
2022/05/01 00:58:07;;;;;;;16.10;12.88;;;;;;;10.97;nan;101018.81;4998598;28;20119;-68
2022/05/01 01:00:51;;;;;;;22.15;13.52;;;;;;;10.92;nan;101012.16;4984733;28;20108;-68
2022/05/01 01:03:35;;;;;;;19.95;14.13;;;;;;;10.89;nan;101010.63;5013326;28;20053;-68
2022/05/01 01:06:19;;;;;;;18.00;12.93;;;;;;;10.89;nan;101015.09;4998741;28;20049;-69
2022/05/01 01:09:04;;;;;;;21.65;13.18;;;;;;;10.87;nan;101007.22;5013551;28;20103;-68
2022/05/01 01:12:53;;;;;;;15.70;12.02;;;;;;;10.94;nan;101008.41;4998616;28;20464;-68
2022/05/01 01:14:52;;;;;;;18.08;13.38;;;;;;;10.97;nan;101008.13;5001348;28;20095;-68
2022/05/01 01:17:37;;;;;;;21.58;14.13;;;;;;;10.93;nan;101004.03;5013132;28;20518;-68
2022/05/01 01:20:26;;;;;;;16.85;12.13;;;;;;;10.92;nan;101004.16;4998201;28;20053;-68
2022/05/01 01:23:10;;;;;;;21.75;13.57;;;;;;;10.88;nan;101002.75;5013661;28;20056;-68
2022/05/01 01:25:54;;;;;;;21.15;12.95;;;;;;;10.89;nan;100993.75;4998469;28;20040;-68
2022/05/01 01:28:40;;;;;;;19.88;12.88;;;;;;;10.89;nan;100999.94;4998215;28;20060;-68
2022/05/01 01:31:40;;;;;;;16.65;11.25;;;;;;;10.85;nan;101003.00;4998123;28;20180;-69
2022/05/01 01:34:30;;;;;;;21.13;12.52;;;;;;;10.80;nan;101003.38;5000703;28;20465;-69
2022/05/01 01:37:16;;;;;;;21.10;11.77;;;;;;;10.62;nan;101006.72;4998151;28;20056;-68
2022/05/01 01:40:01;;;;;;;20.95;12.13;;;;;;;10.59;nan;101002.50;4984670;28;20448;-69
2022/05/01 01:42:46;;;;;;;18.85;11.05;;;;;;;10.67;nan;101004.53;4998035;28;20048;-69
2022/05/01 01:45:30;;;;;;;16.42;11.82;;;;;;;10.70;nan;101005.13;4998163;28;20045;-68
2022/05/01 01:48:16;;;;;;;19.83;12.18;;;;;;;10.74;nan;101003.06;5000039;28;20462;-68
2022/05/01 01:51:03;;;;;;;16.17;10.70;;;;;;;10.67;nan;100996.53;5028262;23;20141;-69
2022/05/01 01:53:47;;;;;;;20.13;10.73;;;;;;;10.57;nan;101006.25;4982295;28;20057;-69
2022/05/01 01:56:31;;;;;;;16.52;10.65;;;;;;;10.39;nan;101008.63;4981992;28;20046;-69
2022/05/01 01:59:15;;;;;;;14.98;10.40;;;;;;;10.27;nan;101006.97;4997205;28;20045;-70
2022/05/01 02:01:59;;;;;;;25.35;10.93;;;;;;;10.35;nan;100999.16;4996607;28;20521;-70
2022/05/01 02:04:43;;;;;;;19.92;10.55;;;;;;;10.44;nan;101002.91;4981830;28;20078;-70
2022/05/01 02:07:30;;;;;;;18.98;10.88;;;;;;;10.54;nan;101001.19;4996853;28;20073;-70
2022/05/01 02:10:14;;;;;;;20.80;12.00;;;;;;;10.57;nan;100996.44;4968054;28;20057;-70
2022/05/01 02:13:00;;;;;;;11.93;10.18;;;;;;;10.59;nan;100997.16;4996741;28;20053;-70
2022/05/01 02:15:44;;;;;;;21.83;14.05;;;;;;;10.59;nan;101001.66;4968358;28;20053;-70
2022/05/01 02:18:27;;;;;;;17.98;11.82;;;;;;;10.57;nan;100999.09;4981818;28;20148;-70
2022/05/01 02:24:14;;;;;;;15.18;10.90;;;;;;;10.62;nan;100988.91;4996229;28;20092;-70
2022/05/01 02:26:58;;;;;;;20.30;13.90;;;;;;;10.62;nan;100988.91;4996475;28;20045;-71
2022/05/01 02:29:44;;;;;;;23.13;12.38;;;;;;;10.67;nan;100972.53;4981697;28;20111;-70
2022/05/01 02:32:29;;;;;;;21.77;13.18;;;;;;;10.69;nan;100979.44;4996137;28;20057;-71
2022/05/01 02:35:13;;;;;;;18.27;11.80;;;;;;;10.72;nan;100976.50;4981722;28;20056;-71
2022/05/01 02:37:57;;;;;;;17.05;11.95;;;;;;;10.74;nan;100974.53;4981529;28;20409;-70
2022/05/01 02:40:42;;;;;;;16.77;12.82;;;;;;;10.65;nan;100974.47;4996146;28;20462;-70
2022/05/01 02:43:26;;;;;;;17.75;12.35;;;;;;;10.65;nan;100977.16;4995880;28;20100;-70
2022/05/01 02:46:10;;;;;;;17.83;13.00;;;;;;;10.65;nan;100974.47;4996145;28;20540;-71
2022/05/01 02:48:55;;;;;;;23.10;13.85;;;;;;;10.64;nan;100978.13;4995802;28;20065;-70
2022/05/01 02:51:39;;;;;;;20.88;14.10;;;;;;;10.63;nan;100976.44;4981130;28;20084;-70
2022/05/01 02:54:23;;;;;;;21.95;12.80;;;;;;;10.69;nan;100979.44;4996007;28;20057;-70
2022/05/01 02:57:06;;;;;;;17.25;11.65;;;;;;;10.73;nan;100975.53;4981130;28;20044;-70
2022/05/01 02:59:50;;;;;;;14.60;10.38;;;;;;;10.74;nan;100976.38;4994613;28;20049;-71
2022/05/01 03:02:34;;;;;;;16.73;10.02;;;;;;;10.78;nan;100981.34;4996062;28;20097;-70
2022/05/01 03:05:19;;;;;;;13.07;10.15;;;;;;;10.80;nan;100974.03;4995792;28;20061;-70
2022/05/01 03:08:03;;;;;;;18.60;10.75;;;;;;;10.83;nan;100978.25;4995407;28;20048;-70
2022/05/01 03:10:47;;;;;;;14.40;10.50;;;;;;;10.43;nan;100980.72;4980765;28;20466;-71
2022/05/01 03:13:31;;;;;;;12.48;9.73;;;;;;;10.22;nan;100986.13;4995611;28;20053;-70
2022/05/01 03:16:15;;;;;;;16.17;11.35;;;;;;;10.34;nan;100986.81;4995183;28;20056;-71
2022/05/01 03:22:11;;;;;;;19.15;11.18;;;;;;;10.50;nan;100976.59;4995123;28;20548;-70
2022/05/01 03:24:55;;;;;;;17.85;11.30;;;;;;;10.36;nan;100974.19;4995267;28;20044;-70
2022/05/01 03:27:39;;;;;;;18.95;13.10;;;;;;;10.34;nan;100968.16;4995357;28;20498;-71
2022/05/01 03:30:23;;;;;;;14.70;10.90;;;;;;;10.40;nan;100959.66;4966799;28;20057;-70
2022/05/01 03:33:07;;;;;;;17.27;10.35;;;;;;;10.33;nan;100963.81;4967196;28;20061;-71
2022/05/01 03:35:51;;;;;;;15.02;9.95;;;;;;;10.27;nan;100969.66;4966727;28;20097;-70
2022/05/01 03:38:37;;;;;;;16.10;11.07;;;;;;;10.15;nan;100963.59;4980444;28;20045;-71
2022/05/01 03:41:21;;;;;;;15.93;11.27;;;;;;;10.20;nan;100962.25;4980077;28;20117;-70
2022/05/01 03:44:07;;;;;;;12.77;10.23;;;;;;;10.23;nan;100957.53;4980096;28;20097;-71
2022/05/01 03:46:51;;;;;;;13.48;10.35;;;;;;;10.15;nan;100952.94;4980532;28;20048;-71
2022/05/01 03:49:35;;;;;;;15.32;9.38;;;;;;;10.25;nan;100958.25;4966529;28;20049;-70
2022/05/01 03:52:19;;;;;;;12.75;9.70;;;;;;;10.26;nan;100946.63;4994861;28;20057;-71
2022/05/01 03:55:03;;;;;;;13.77;10.10;;;;;;;10.23;nan;100950.50;4979990;28;20053;-70
2022/05/01 03:57:48;;;;;;;18.20;11.90;;;;;;;10.26;nan;100951.94;4994520;28;20049;-71
2022/05/01 04:00:32;;;;;;;16.50;11.65;;;;;;;10.25;nan;100944.94;4979956;28;20109;-70
2022/05/01 04:03:19;;;;;;;19.13;11.18;;;;;;;10.09;nan;100948.16;4979931;28;20120;-71
2022/05/01 04:06:03;;;;;;;16.25;11.68;;;;;;;10.13;nan;100950.44;4994640;28;20049;-70
2022/05/01 04:08:47;;;;;;;18.73;13.65;;;;;;;10.11;nan;100946.19;4994542;28;20180;-70
2022/05/01 04:11:31;;;;;;;17.58;12.43;;;;;;;10.28;nan;100949.16;4994165;28;20489;-70
2022/05/01 04:14:15;;;;;;;18.42;11.77;;;;;;;10.35;nan;100951.19;4965920;28;20077;-70
2022/05/01 04:16:59;;;;;;;14.52;12.23;;;;;;;10.30;nan;100956.06;4994507;28;20044;-70
2022/05/01 04:19:43;;;;;;;18.08;12.60;;;;;;;10.27;nan;100960.78;4980053;28;20057;-70
2022/05/01 04:22:27;;;;;;;24.27;13.20;;;;;;;10.18;nan;100958.06;4979691;28;20049;-70
2022/05/01 04:25:23;;;;;;;17.48;12.07;;;;;;;10.19;nan;100957.09;4966068;28;20049;-70
2022/05/01 04:28:09;;;;;;;17.15;11.75;;;;;;;10.27;nan;100959.00;4979387;28;20076;-70
2022/05/01 04:30:54;;;;;;;17.80;11.77;;;;;;;10.29;nan;100970.38;4965807;28;20411;-71
2022/05/01 04:33:38;;;;;;;16.13;10.80;;;;;;;10.32;nan;100972.78;4979552;28;20100;-70
2022/05/01 04:36:21;;;;;;;16.75;11.65;;;;;;;10.37;nan;100972.41;4979420;28;20402;-71
2022/05/01 04:39:05;;;;;;;13.30;10.40;;;;;;;10.42;nan;100979.03;4979492;28;20057;-70
2022/05/01 04:41:49;;;;;;;17.67;13.10;;;;;;;10.38;nan;100977.63;4994184;28;20045;-71
2022/05/01 04:44:33;;;;;;;18.30;12.18;;;;;;;10.46;nan;100972.47;4979431;28;20081;-70
2022/05/01 04:47:17;;;;;;;21.15;11.98;;;;;;;10.48;nan;100967.88;4994117;28;20568;-70
2022/05/01 04:50:01;;;;;;;14.68;11.32;;;;;;;10.55;nan;100968.22;4993716;28;20137;-70
2022/05/01 04:52:45;;;;;;;16.95;12.38;;;;;;;10.59;nan;100981.19;4965703;28;20513;-70
2022/05/01 04:55:30;;;;;;;16.40;12.02;;;;;;;10.53;nan;100976.34;4978998;28;20073;-70
2022/05/01 04:58:17;;;;;;;18.35;11.55;;;;;;;10.40;nan;100985.47;4979275;28;20080;-70
2022/05/01 05:01:02;;;;;;;15.82;10.82;;;;;;;10.52;nan;100979.97;4993788;28;20057;-70
2022/05/01 05:03:46;;;;;;;20.05;12.13;;;;;;;10.58;nan;100979.47;4993966;28;20397;-70
2022/05/01 05:06:30;;;;;;;16.38;11.10;;;;;;;10.63;nan;100985.25;4979346;28;20544;-70
2022/05/01 05:12:17;;;;;;;18.23;12.30;;;;;;;10.75;nan;100988.75;4981838;28;20049;-70
2022/05/01 05:15:04;;;;;;;17.25;11.95;;;;;;;10.84;nan;100985.31;4979099;28;20581;-70
2022/05/01 05:17:48;;;;;;;15.65;12.00;;;;;;;10.94;nan;100986.22;4979217;28;20457;-70
2022/05/01 05:20:32;;;;;;;15.48;11.10;;;;;;;10.94;nan;100984.41;4978758;28;20057;-70
2022/05/01 05:23:17;;;;;;;17.00;12.15;;;;;;;11.13;nan;100991.69;4966880;28;20100;-70
2022/05/01 05:26:01;;;;;;;18.88;12.00;;;;;;;11.17;nan;100991.28;4982955;28;20166;-70
2022/05/01 05:28:45;;;;;;;17.95;11.90;;;;;;;11.30;nan;100993.75;4982797;28;20052;-70
2022/05/01 05:31:29;;;;;;;16.33;11.07;;;;;;;11.50;nan;100992.91;4982362;28;20056;-70
2022/05/01 05:34:12;;;;;;;16.48;11.20;;;;;;;11.55;nan;100993.31;4982683;28;20049;-70
2022/05/01 05:36:56;;;;;;;18.35;11.20;;;;;;;11.57;nan;101002.94;4982642;28;20564;-70
2022/05/01 05:39:40;;;;;;;14.60;11.02;;;;;;;11.62;nan;100998.06;4997114;28;20049;-70
2022/05/01 05:42:25;;;;;;;14.88;10.60;;;;;;;11.77;nan;101009.25;4997309;28;20101;-71
2022/05/01 05:45:10;;;;;;;13.00;10.05;;;;;;;11.86;nan;101003.91;4968834;28;20410;-70
2022/05/01 05:47:54;;;;;;;17.35;10.70;;;;;;;11.84;nan;101008.56;4982604;28;20057;-70
2022/05/01 05:50:38;;;;;;;15.07;9.82;;;;;;;11.71;nan;101004.41;4996898;28;20162;-70
2022/05/01 05:53:22;;;;;;;17.00;10.32;;;;;;;11.85;nan;101012.06;4996855;28;20521;-70
2022/05/01 05:56:06;;;;;;;15.18;10.55;;;;;;;11.92;nan;101007.88;4996679;28;20046;-70
2022/05/01 05:58:50;;;;;;;12.82;9.90;;;;;;;11.93;nan;101002.41;4982226;28;20541;-70
2022/05/01 06:01:34;;;;;;;17.63;10.63;;;;;;;12.14;nan;101002.31;4996865;28;20096;-70
2022/05/01 06:04:18;;;;;;;13.85;9.32;;;;;;;12.24;nan;101011.22;4981970;28;20049;-70
2022/05/01 06:07:01;;;;;;;12.48;9.55;;;;;;;12.20;nan;101010.63;4996940;28;20509;-70
2022/05/01 06:09:45;;;;;;;18.75;10.02;;;;;;;12.24;nan;101001.38;4996797;28;20045;-70
2022/05/01 06:12:29;;;;;;;14.55;9.73;;;;;;;12.35;nan;101008.41;4981803;28;20053;-70
2022/05/01 06:15:13;;;;;;;14.20;10.52;;;;;;;12.18;nan;101012.59;4981902;28;20050;-71
2022/05/01 06:17:57;;;;;;;17.55;10.85;;;;;;;12.06;nan;101011.03;4981913;28;20101;-70
2022/05/01 06:20:41;;;;;;;13.35;10.25;;;;;;;12.00;nan;101011.56;4996465;28;20489;-70
2022/05/01 06:23:25;;;;;;;13.82;10.85;;;;;;;11.95;nan;101011.13;4968526;28;20185;-70
2022/05/01 06:26:10;;;;;;;14.38;10.15;;;;;;;12.05;nan;101014.69;4981518;28;20053;-70
2022/05/01 06:28:53;;;;;;;14.68;9.43;;;;;;;12.04;nan;101010.31;4996319;28;20091;-70
2022/05/01 06:31:38;;;;;;;;;;;;;;;12.02;nan;101014.97;4981805;28;20050;-70
2022/05/01 06:34:22;;;;;;;;;;;;;;;12.16;nan;101013.72;4995208;28;19968;-69
2022/05/01 06:37:06;;;;;;;13.48;10.48;;;;;;;12.19;nan;101011.63;4981455;28;20368;-70
2022/05/01 06:39:50;;;;;;;17.65;10.60;;;;;;;12.07;nan;101014.56;4981451;28;20085;-70
2022/05/01 06:42:35;;;;;;;19.80;10.88;;;;;;;12.18;nan;101014.44;4981511;28;20045;-70
2022/05/01 06:45:18;;;;;;;12.32;9.85;;;;;;;12.30;nan;101008.84;4981186;28;20041;-70
2022/05/01 06:48:03;;;;;;;20.98;11.05;;;;;;;12.47;nan;101004.63;4967448;28;20462;-69
2022/05/01 06:50:47;;;;;;;16.13;10.45;;;;;;;12.57;nan;100998.34;4995736;28;20080;-70
2022/05/01 06:53:31;;;;;;;15.20;11.35;;;;;;;12.66;nan;101008.19;4981229;28;20431;-70
2022/05/01 06:56:15;;;;;;;16.17;11.15;;;;;;;12.91;nan;101004.94;4995889;28;20057;-70
2022/05/01 06:58:59;;;;;;;19.38;11.25;;;;;;;12.96;nan;101013.44;4981186;28;20422;-70
2022/05/01 07:01:43;;;;;;;13.73;10.20;;;;;;;13.08;nan;101001.59;4995537;28;20150;-70
2022/05/01 07:04:27;;;;;;;20.77;11.20;;;;;;;13.19;nan;101014.84;4981339;28;20049;-70
2022/05/01 07:07:11;;;;;;;15.57;10.70;;;;;;;13.14;nan;101011.75;4981003;28;20089;-71
2022/05/01 07:09:55;;;;;;;20.58;12.32;;;;;;;13.05;nan;101015.28;4980929;28;20153;-70
2022/05/01 07:12:38;;;;;;;20.48;11.15;;;;;;;12.72;nan;101012.97;4980747;28;20161;-70
2022/05/01 07:15:22;;;;;;;;;;;;;;;13.00;nan;101017.53;4995654;28;20564;-70
2022/05/01 07:18:06;;;;;;;18.10;10.88;;;;;;;13.12;nan;101019.91;4967156;28;19993;-70
2022/05/01 07:20:50;;;;;;;17.80;11.25;;;;;;;12.89;nan;101012.28;4995382;28;20530;-70
2022/05/01 07:23:34;;;;;;;17.05;10.20;;;;;;;13.31;nan;101016.38;4995152;28;20065;-70
2022/05/01 07:26:18;;;;;;;16.60;11.52;;;;;;;13.58;nan;101008.41;4995350;28;20084;-69
2022/05/01 07:29:03;;;;;;;17.13;10.85;;;;;;;13.70;nan;101010.78;4995328;28;20057;-70
2022/05/01 07:31:47;;;;;;;17.20;11.15;;;;;;;14.04;nan;101008.34;4980251;28;20100;-70
2022/05/01 07:34:31;;;;;;;16.38;10.70;;;;;;;14.09;nan;101001.56;4994978;28;20173;-70
2022/05/01 07:37:16;;;;;;;15.75;10.10;;;;;;;14.26;nan;101013.38;4980401;28;20045;-70
2022/05/01 07:40:01;;;;;;;14.77;10.00;;;;;;;14.20;nan;101004.06;4980308;28;20081;-70
2022/05/01 07:42:45;;;;;;;14.60;10.05;;;;;;;14.24;nan;101007.31;4995077;28;20472;-70
2022/05/01 07:45:29;;;;;;;13.57;10.60;;;;;;;14.50;nan;101000.25;4994375;28;20422;-70
2022/05/01 07:48:13;;;;;;;;;;;;;;;14.69;nan;101000.09;4995354;28;20053;-70
2022/05/01 07:50:57;;;;;;;13.80;10.18;;;;;;;14.31;nan;101001.22;5022206;23;19929;-69
2022/05/01 07:53:42;;;;;;;14.75;10.60;;;;;;;14.39;nan;101003.97;4999802;28;20056;-69
2022/05/01 07:56:26;;;;;;;15.70;10.23;;;;;;;14.47;nan;100995.19;5014018;28;20509;-69
2022/05/01 07:59:11;;;;;;;15.30;10.25;;;;;;;14.62;nan;100988.28;4999212;28;20044;-68
2022/05/01 08:01:55;;;;;;;15.93;10.10;;;;;;;14.70;nan;100994.56;5013698;28;20175;-69
2022/05/01 08:04:39;;;;;;;15.00;9.63;;;;;;;15.17;nan;100995.16;4999075;28;20126;-69
2022/05/01 08:07:23;;;;;;;13.07;9.63;;;;;;;15.57;nan;100993.63;4985592;28;20052;-69
2022/05/01 08:10:08;;;;;;;17.27;9.18;;;;;;;15.43;nan;101001.44;4985535;28;20052;-69
2022/05/01 08:12:51;;;;;;;14.15;10.25;;;;;;;14.15;nan;100994.75;4985356;28;20421;-69
2022/05/01 08:15:35;;;;;;;14.20;9.82;;;;;;;15.08;nan;100993.41;4985577;28;20100;-69
2022/05/01 08:21:22;;;;;;;18.63;10.68;;;;;;;15.48;nan;100989.22;5013877;28;20121;-69
2022/05/01 08:24:06;;;;;;;13.75;10.48;;;;;;;15.57;nan;100986.41;5014215;28;20049;-69
2022/05/01 08:26:50;;;;;;;17.05;11.32;;;;;;;15.66;nan;100984.63;4999214;28;20048;-70
2022/05/01 08:29:36;;;;;;;13.95;10.13;;;;;;;15.65;nan;100991.81;4999181;28;20084;-69
2022/05/01 08:32:21;;;;;;;14.23;10.60;;;;;;;16.09;nan;100985.31;5013733;28;20052;-69
2022/05/01 08:35:05;;;;;;;14.68;10.85;;;;;;;16.08;nan;100989.00;4999039;28;20072;-69
2022/05/01 08:37:49;;;;;;;18.17;10.48;;;;;;;16.15;nan;100995.44;4998810;28;20111;-69
2022/05/01 08:40:32;;;;;;;13.77;11.23;;;;;;;15.78;nan;100989.53;5013661;28;20049;-69
2022/05/01 08:43:21;;;;;;;15.18;11.40;;;;;;;15.94;nan;100992.31;4999182;28;20457;-69
2022/05/01 08:46:27;;;;;;;15.00;10.35;;;;;;;15.45;nan;100991.38;5013482;28;20111;-69
2022/05/01 08:49:12;;;;;;;15.60;11.90;;;;;;;16.10;nan;100984.34;4999145;28;20536;-69
2022/05/01 08:52:00;;;;;;;18.48;13.48;;;;;;;16.09;nan;100982.63;4998723;28;20049;-69
2022/05/01 08:54:45;;;;;;;19.13;13.52;;;;;;;16.28;nan;100985.06;4998710;28;20053;-69
2022/05/01 08:57:32;;;;;;;17.13;13.25;;;;;;;16.83;nan;100986.22;4999428;28;20103;-69
2022/05/01 09:00:17;;;;;;;16.95;13.82;;;;;;;17.09;nan;100989.59;5003098;28;20108;-69
2022/05/01 09:03:04;;;;;;;20.77;14.80;;;;;;;16.20;nan;100992.25;5002945;28;20056;-70
2022/05/01 09:05:48;;;;;;;20.40;12.95;;;;;;;16.18;nan;100980.81;5003264;28;20121;-69
2022/05/01 09:08:32;;;;;;;19.65;13.60;;;;;;;15.55;nan;100984.03;4989373;28;20053;-69
2022/05/01 09:14:26;;;;;;;21.40;15.90;;;;;;;15.81;nan;100986.56;5017689;28;20394;-69
2022/05/01 09:17:10;;;;;;;21.60;16.67;;;;;;;16.31;nan;100990.13;5017578;28;20041;-69
2022/05/01 09:20:08;;;;;;;21.73;17.67;;;;;;;16.05;nan;100986.66;5002303;28;20123;-69
2022/05/01 09:22:54;;;;;;;20.30;16.50;;;;;;;15.78;nan;100981.47;5017125;28;20057;-69
2022/05/01 09:25:38;;;;;;;20.00;14.85;;;;;;;16.28;nan;100979.66;5002363;28;20060;-69
2022/05/01 09:28:22;;;;;;;17.70;14.38;;;;;;;16.74;nan;100989.91;5017477;28;20513;-70
2022/05/01 09:31:06;;;;;;;17.05;14.50;;;;;;;17.10;nan;100977.81;5002189;28;20165;-70
2022/05/01 09:33:53;;;;;;;18.42;13.98;;;;;;;16.56;nan;100983.81;5016896;28;20052;-70
2022/05/01 09:36:37;;;;;;;20.23;14.90;;;;;;;17.28;nan;100978.47;5001901;28;20559;-69
2022/05/01 09:39:29;;;;;;;19.55;15.23;;;;;;;17.32;nan;100978.97;5016980;28;20053;-70
2022/05/01 09:42:16;;;;;;;16.50;14.20;;;;;;;17.28;nan;100975.78;5002053;28;20112;-70
2022/05/01 09:45:17;;;;;;;19.80;13.93;;;;;;;17.11;nan;100986.75;4988182;28;20057;-69
2022/05/01 09:48:01;;;;;;;18.02;14.77;;;;;;;16.42;nan;100986.31;5002920;28;20414;-69
2022/05/01 09:50:46;;;;;;;19.33;14.93;;;;;;;16.79;nan;100984.03;5001743;28;20103;-69
2022/05/01 09:53:41;;;;;;;18.00;15.48;;;;;;;17.34;nan;100980.50;5002066;28;20045;-69
2022/05/01 09:56:25;;;;;;;;;;;;;;;16.45;nan;100992.22;5017109;28;20405;-70
2022/05/01 09:59:09;;;;;;;18.55;13.80;;;;;;;17.09;nan;100994.16;5001556;28;20388;-69
2022/05/01 10:02:04;;;;;;;20.13;14.77;;;;;;;17.03;nan;100981.34;5016785;28;20560;-69
2022/05/01 10:04:48;;;;;;;21.75;15.63;;;;;;;17.20;nan;100989.25;5001446;28;20125;-69
2022/05/01 10:07:36;;;;;;;17.73;15.38;;;;;;;17.41;nan;100986.91;5001487;28;20071;-70
2022/05/01 10:10:20;;;;;;;24.23;15.05;;;;;;;17.53;nan;100980.16;5001352;28;20464;-70
2022/05/01 10:13:05;;;;;;;20.02;16.15;;;;;;;17.06;nan;100987.25;5001484;28;20111;-69
2022/05/01 10:15:50;;;;;;;17.85;15.95;;;;;;;17.05;nan;100985.56;5001491;28;20069;-69
2022/05/01 10:18:35;;;;;;;20.95;15.38;;;;;;;17.00;nan;100985.22;5001523;28;20129;-69
2022/05/01 10:21:20;;;;;;;19.48;14.88;;;;;;;17.05;nan;100984.72;5001360;28;20121;-70
2022/05/01 10:24:05;;;;;;;21.20;16.40;;;;;;;16.84;nan;100982.53;5016483;28;20049;-69
2022/05/01 10:26:57;;;;;;;18.95;14.82;;;;;;;16.56;nan;100988.38;5001367;28;20049;-70
2022/05/01 10:33:24;;;;;;;20.00;14.50;;;;;;;17.30;nan;100972.94;5016078;28;20088;-69
2022/05/01 10:36:30;;;;;;;19.90;15.95;;;;;;;17.07;nan;100969.22;5015959;28;20509;-69
2022/05/01 10:39:17;;;;;;;20.60;16.20;;;;;;;16.41;nan;100973.88;4987191;28;20048;-69
2022/05/01 10:42:01;;;;;;;18.30;15.30;;;;;;;16.33;nan;100965.72;5000954;28;20088;-70
2022/05/01 10:44:45;;;;;;;21.20;16.33;;;;;;;16.05;nan;100972.38;5000726;28;20103;-69
2022/05/01 10:47:37;;;;;;;20.40;14.95;;;;;;;16.20;nan;100954.59;5001353;28;20406;-69
2022/05/01 10:50:22;;;;;;;19.60;15.35;;;;;;;16.12;nan;100960.81;4986796;28;20052;-71
2022/05/01 10:53:12;;;;;;;17.92;13.85;;;;;;;16.82;nan;100952.22;5000967;28;20096;-69
2022/05/01 10:56:17;;;;;;;20.38;14.57;;;;;;;17.01;nan;100946.47;4987801;28;20080;-69
2022/05/01 10:59:29;;;;;;;17.83;13.95;;;;;;;16.90;nan;100957.59;5000765;28;20466;-69
2022/05/01 11:02:25;;;;;;;18.80;13.70;;;;;;;17.16;nan;100941.25;5015343;28;20088;-69
2022/05/01 11:05:11;;;;;;;16.23;13.30;;;;;;;17.42;nan;100940.06;5000421;28;20092;-70
2022/05/01 11:07:57;;;;;;;15.18;12.90;;;;;;;17.73;nan;100940.16;5000665;28;20084;-70
2022/05/01 11:10:42;;;;;;;16.50;12.98;;;;;;;18.05;nan;100931.94;5015670;28;20048;-70
2022/05/01 11:13:35;;;;;;;17.52;13.50;;;;;;;17.94;nan;100940.41;4986894;28;20084;-70
2022/05/01 11:16:52;;;;;;;16.42;13.20;;;;;;;18.05;nan;100938.19;5015163;28;20041;-70
2022/05/01 11:19:50;;;;;;;14.07;11.27;;;;;;;18.19;nan;100934.72;5014877;28;20084;-69
2022/05/01 11:22:34;;;;;;;17.92;12.45;;;;;;;17.92;nan;100929.78;4999898;28;20088;-69
2022/05/01 11:25:31;;;;;;;17.27;11.98;;;;;;;17.82;nan;100928.34;5014949;28;20053;-70
2022/05/01 11:28:40;;;;;;;17.65;13.57;;;;;;;17.01;nan;100930.31;5000286;28;20049;-69
2022/05/01 11:31:36;;;;;;;16.02;12.05;;;;;;;17.49;nan;100929.47;5000131;28;20095;-70
2022/05/01 11:34:22;;;;;;;18.65;12.43;;;;;;;17.72;nan;100915.03;5015255;28;20056;-69
2022/05/01 11:37:07;;;;;;;18.20;12.55;;;;;;;17.33;nan;100930.31;5014551;28;20418;-70
2022/05/01 11:39:52;;;;;;;14.80;12.68;;;;;;;17.53;nan;100920.84;5000097;28;20056;-70
2022/05/01 11:42:36;;;;;;;;;;;;;;;16.99;nan;100921.56;5014951;28;20052;-70
2022/05/01 11:45:20;;;;;;;18.23;13.87;;;;;;;17.33;nan;100924.06;5000211;28;20277;-70
2022/05/01 11:48:11;;;;;;;15.68;12.48;;;;;;;17.13;nan;100920.06;4999623;28;20053;-69
2022/05/01 11:50:58;;;;;;;15.23;11.38;;;;;;;17.24;nan;100917.00;4999677;28;20052;-69
2022/05/01 11:53:43;;;;;;;14.10;12.15;;;;;;;17.84;nan;100913.66;5014572;28;20108;-69
2022/05/01 12:02:33;;;;;;;13.30;11.18;;;;;;;19.68;nan;100901.41;5001848;28;20044;-69
2022/05/01 12:05:18;;;;;;;14.13;11.40;;;;;;;19.53;nan;100912.22;4985512;28;20477;-69
2022/05/01 12:08:03;;;;;;;14.23;10.77;;;;;;;19.00;nan;100903.44;4999317;28;20053;-69
2022/05/01 12:10:47;;;;;;;16.17;12.32;;;;;;;19.21;nan;100906.31;5014284;28;20060;-69
2022/05/01 12:13:32;;;;;;;16.60;12.85;;;;;;;18.66;nan;100900.38;4999395;28;20139;-69
2022/05/01 12:16:24;;;;;;;12.73;10.57;;;;;;;18.85;nan;100895.31;5014154;28;20053;-69
2022/05/01 12:19:09;;;;;;;14.93;12.98;;;;;;;18.65;nan;100898.66;4985819;28;20100;-69
2022/05/01 12:21:58;;;;;;;17.92;12.32;;;;;;;18.44;nan;100893.94;5013875;28;20133;-69
2022/05/01 12:24:43;;;;;;;17.58;11.88;;;;;;;18.49;nan;100894.22;4999114;28;20045;-69
2022/05/01 12:27:27;;;;;;;16.95;11.98;;;;;;;20.25;nan;100884.25;5013755;28;20516;-69
2022/05/01 12:30:13;;;;;;;15.75;11.75;;;;;;;20.47;nan;100887.81;4999377;28;20049;-69
2022/05/01 12:32:58;;;;;;;12.98;10.30;;;;;;;21.33;nan;100879.22;4999002;28;20461;-69
2022/05/01 12:35:58;;;;;;;14.23;10.75;;;;;;;21.37;nan;100880.47;4998751;28;20125;-69
2022/05/01 12:38:42;;;;;;;12.20;9.77;;;;;;;20.97;nan;100876.84;4999020;28;20056;-69
2022/05/01 12:44:29;;;;;;;16.42;9.95;;;;;;;19.79;nan;100877.41;5001340;28;20064;-69
2022/05/01 12:47:29;;;;;;;14.23;10.02;;;;;;;19.74;nan;100879.00;5013741;28;20044;-69
2022/05/01 12:50:19;;;;;;;13.60;9.60;;;;;;;19.66;nan;100870.97;5013722;28;20504;-69
2022/05/01 12:53:24;;;;;;;14.80;10.98;;;;;;;19.21;nan;100873.88;5013757;28;20160;-69
2022/05/01 12:56:21;;;;;;;;;;;;;;;18.89;nan;100866.06;4999200;28;20049;-69
2022/05/01 12:59:27;;;;;;;11.45;10.05;;;;;;;18.46;nan;100869.47;4998895;28;20052;-69
2022/05/01 13:02:18;;;;;;;16.33;11.48;;;;;;;18.65;nan;100868.97;4984853;28;20136;-69
2022/05/01 13:05:05;;;;;;;14.15;12.32;;;;;;;18.21;nan;100861.69;4998856;28;20489;-69
2022/05/01 13:07:50;;;;;;;16.38;12.10;;;;;;;18.57;nan;100860.94;4998861;28;20565;-69
2022/05/01 13:10:34;;;;;;;16.50;11.98;;;;;;;18.97;nan;100866.81;4998467;28;20192;-69
2022/05/01 13:13:18;;;;;;;14.48;12.55;;;;;;;19.49;nan;100861.41;4998391;28;20053;-69
2022/05/01 13:16:05;;;;;;;14.57;11.82;;;;;;;20.86;nan;100848.41;4998420;28;20096;-69
2022/05/01 13:18:55;;;;;;;16.63;11.32;;;;;;;22.24;nan;100847.09;4998650;28;20104;-69
2022/05/01 13:21:47;;;;;;;16.38;12.00;;;;;;;24.00;nan;100842.34;4998411;28;20052;-69
2022/05/01 13:24:32;;;;;;;15.52;12.32;;;;;;;24.58;nan;100838.44;4998592;28;20049;-70
2022/05/01 13:27:16;;;;;;;13.85;12.25;;;;;;;23.84;nan;100831.94;4998709;28;20497;-70
2022/05/01 13:30:00;;;;;;;13.43;10.70;;;;;;;24.10;nan;100824.47;4998252;28;20045;-69
2022/05/01 13:32:44;;;;;;;;;;;;;;;24.83;nan;100828.41;4998622;28;20108;-70